createdAt,value
2019-01-28T00:00:11.916Z,0.00
2019-01-28T00:01:11.906Z,0.00
2019-01-28T00:02:11.901Z,0.00
2019-01-28T00:03:11.936Z,0.00
2019-01-28T00:04:11.874Z,0.00
2019-01-28T00:05:11.865Z,0.00
2019-01-28T00:06:11.851Z,0.00
2019-01-28T00:07:11.840Z,0.00
2019-01-28T00:08:11.829Z,0.00
2019-01-28T00:09:11.872Z,0.00
2019-01-28T00:10:11.808Z,0.00
2019-01-28T00:11:11.797Z,0.00
2019-01-28T00:12:11.786Z,0.00
2019-01-28T00:13:11.775Z,0.00
2019-01-28T00:14:11.766Z,0.00
2019-01-28T00:15:11.798Z,0.00
2019-01-28T00:16:11.743Z,0.00
2019-01-28T00:17:11.735Z,0.00
2019-01-28T00:18:11.721Z,0.00
2019-01-28T00:19:11.711Z,0.00
2019-01-28T00:20:11.700Z,0.00
2019-01-28T00:21:11.766Z,0.00
2019-01-28T00:22:11.706Z,0.00
2019-01-28T00:23:11.669Z,0.00
2019-01-28T00:24:11.657Z,0.00
2019-01-28T00:25:11.649Z,0.00
2019-01-28T00:26:11.636Z,0.00
2019-01-28T00:27:11.808Z,0.00
2019-01-28T00:28:11.627Z,0.00
2019-01-28T00:29:11.605Z,0.00
2019-01-28T00:30:11.595Z,0.00
2019-01-28T00:31:11.582Z,0.00
2019-01-28T00:32:11.587Z,0.00
2019-01-28T00:33:11.599Z,0.00
2019-01-28T00:34:11.557Z,0.00
2019-01-28T00:35:11.539Z,0.00
2019-01-28T00:36:11.531Z,0.00
2019-01-28T00:37:11.517Z,0.00
2019-01-28T00:38:11.510Z,0.00
2019-01-28T00:39:11.526Z,0.00
2019-01-28T00:40:11.492Z,0.00
2019-01-28T00:41:11.475Z,0.00
2019-01-28T00:42:11.463Z,0.00
2019-01-28T00:43:11.454Z,0.00
2019-01-28T00:44:11.442Z,0.00
2019-01-28T00:45:11.464Z,0.00
2019-01-28T00:46:11.430Z,0.00
2019-01-28T00:47:11.410Z,0.00
2019-01-28T00:48:11.399Z,0.00
2019-01-28T00:49:11.389Z,0.00
2019-01-28T00:50:11.378Z,0.00
2019-01-28T00:51:11.408Z,0.00
2019-01-28T00:52:11.370Z,0.00
2019-01-28T00:53:11.348Z,0.00
2019-01-28T00:54:11.338Z,0.00
2019-01-28T00:55:11.326Z,0.00
2019-01-28T00:56:11.314Z,0.00
2019-01-28T00:57:11.336Z,0.00
2019-01-28T00:58:11.297Z,0.00
2019-01-28T00:59:11.282Z,0.00
2019-01-28T01:00:11.272Z,0.00
2019-01-28T01:01:11.261Z,0.00
2019-01-28T01:02:11.255Z,0.00
2019-01-28T01:03:11.278Z,0.00
2019-01-28T01:04:11.237Z,0.00
2019-01-28T01:05:11.221Z,0.00
2019-01-28T01:06:11.217Z,0.00
2019-01-28T01:07:11.208Z,0.00
2019-01-28T01:08:11.194Z,0.00
2019-01-28T01:09:11.222Z,0.00
2019-01-28T01:10:11.165Z,0.00
2019-01-28T01:11:11.157Z,0.00
2019-01-28T01:12:11.150Z,0.00
2019-01-28T01:13:11.133Z,0.00
2019-01-28T01:14:11.121Z,0.00
2019-01-28T01:15:11.150Z,0.00
2019-01-28T01:16:11.103Z,0.00
2019-01-28T01:17:11.093Z,0.00
2019-01-28T01:18:11.081Z,0.00
2019-01-28T01:19:11.070Z,0.00
2019-01-28T01:20:11.068Z,0.00
2019-01-28T01:21:11.084Z,0.00
2019-01-28T01:22:11.042Z,0.00
2019-01-28T01:23:11.027Z,0.00
2019-01-28T01:24:11.017Z,0.00
2019-01-28T01:25:11.007Z,0.00
2019-01-28T01:26:11.004Z,0.00
2019-01-28T01:27:11.021Z,0.00
2019-01-28T01:28:10.973Z,0.00
2019-01-28T01:29:10.961Z,0.00
2019-01-28T01:30:10.951Z,0.00
2019-01-28T01:31:10.942Z,0.00
2019-01-28T01:32:10.931Z,0.00
2019-01-28T01:33:10.953Z,0.00
2019-01-28T01:34:10.909Z,0.00
2019-01-28T01:35:10.899Z,0.00
2019-01-28T01:36:10.889Z,0.00
2019-01-28T01:37:10.877Z,0.00
2019-01-28T01:38:10.874Z,0.00
2019-01-28T01:39:10.898Z,0.00
2019-01-28T01:40:10.844Z,0.00
2019-01-28T01:41:10.834Z,0.00
2019-01-28T01:42:10.823Z,0.00
2019-01-28T01:43:10.815Z,0.00
2019-01-28T01:44:10.803Z,0.00
2019-01-28T01:45:10.858Z,0.00
2019-01-28T01:46:10.778Z,0.00
2019-01-28T01:47:10.768Z,0.00
2019-01-28T01:48:10.757Z,0.00
2019-01-28T01:49:10.746Z,0.00
2019-01-28T01:50:10.739Z,0.00
2019-01-28T01:51:10.766Z,0.00
2019-01-28T01:52:10.715Z,0.00
2019-01-28T01:53:10.703Z,0.00
2019-01-28T01:54:10.694Z,0.00
2019-01-28T01:55:10.682Z,0.00
2019-01-28T01:56:10.680Z,0.00
2019-01-28T01:57:10.730Z,0.00
2019-01-28T01:58:10.648Z,0.00
2019-01-28T01:59:10.639Z,0.00
2019-01-28T02:00:10.628Z,0.00
2019-01-28T02:01:10.618Z,0.00
2019-01-28T02:02:10.606Z,0.00
2019-01-28T02:03:11.461Z,0.00
2019-01-28T02:04:10.583Z,0.00
2019-01-28T02:05:10.573Z,0.00
2019-01-28T02:06:10.562Z,0.00
2019-01-28T02:07:10.551Z,0.00
2019-01-28T02:08:10.543Z,0.00
2019-01-28T02:09:10.577Z,0.00
2019-01-28T02:10:10.519Z,0.00
2019-01-28T02:11:10.508Z,0.00
2019-01-28T02:12:10.499Z,0.00
2019-01-28T02:13:10.487Z,0.00
2019-01-28T02:14:10.492Z,0.00
2019-01-28T02:15:10.507Z,0.00
2019-01-28T02:16:10.455Z,0.00
2019-01-28T02:17:10.449Z,0.00
2019-01-28T02:18:10.434Z,0.00
2019-01-28T02:19:10.422Z,0.00
2019-01-28T02:20:10.412Z,0.00
2019-01-28T02:21:10.698Z,0.00
2019-01-28T02:22:10.425Z,0.00
2019-01-28T02:23:10.379Z,0.00
2019-01-28T02:24:10.371Z,0.00
2019-01-28T02:25:10.406Z,0.00
2019-01-28T02:26:10.351Z,0.00
2019-01-28T02:27:10.638Z,0.00
2019-01-28T02:28:10.327Z,0.00
2019-01-28T02:29:10.314Z,0.00
2019-01-28T02:30:10.305Z,0.00
2019-01-28T02:31:10.293Z,0.00
2019-01-28T02:32:10.282Z,0.00
2019-01-28T02:33:10.310Z,0.00
2019-01-28T02:34:10.269Z,0.00
2019-01-28T02:35:10.254Z,0.00
2019-01-28T02:36:10.239Z,0.00
2019-01-28T02:37:10.228Z,0.00
2019-01-28T02:38:10.219Z,0.00
2019-01-28T02:39:10.253Z,0.00
2019-01-28T02:40:10.206Z,0.00
2019-01-28T02:41:10.185Z,0.00
2019-01-28T02:42:10.177Z,0.00
2019-01-28T02:43:10.168Z,0.00
2019-01-28T02:44:10.156Z,0.00
2019-01-28T02:45:10.178Z,0.00
2019-01-28T02:46:10.140Z,0.00
2019-01-28T02:47:10.127Z,0.00
2019-01-28T02:48:10.112Z,0.00
2019-01-28T02:49:10.107Z,0.00
2019-01-28T02:50:10.091Z,0.00
2019-01-28T02:51:10.107Z,0.00
2019-01-28T02:52:10.069Z,0.00
2019-01-28T02:53:10.066Z,0.00
2019-01-28T02:54:10.058Z,0.00
2019-01-28T02:55:10.039Z,0.00
2019-01-28T02:56:10.026Z,0.00
2019-01-28T02:57:10.056Z,0.00
2019-01-28T02:58:10.004Z,0.00
2019-01-28T02:59:10.005Z,0.00
2019-01-28T03:00:09.984Z,0.00
2019-01-28T03:01:09.971Z,0.00
2019-01-28T03:02:09.963Z,0.00
2019-01-28T03:03:09.985Z,0.00
2019-01-28T03:04:09.940Z,0.00
2019-01-28T03:05:10.021Z,0.00
2019-01-28T03:06:09.920Z,0.00
2019-01-28T03:07:09.907Z,0.00
2019-01-28T03:08:09.911Z,0.00
2019-01-28T03:09:09.917Z,0.00
2019-01-28T03:10:09.876Z,0.00
2019-01-28T03:11:10.510Z,0.00
2019-01-28T03:12:09.859Z,0.00
2019-01-28T03:13:09.849Z,0.00
2019-01-28T03:14:09.836Z,0.00
2019-01-28T03:15:09.860Z,0.00
2019-01-28T03:16:09.812Z,0.00
2019-01-28T03:17:09.824Z,0.00
2019-01-28T03:18:09.790Z,0.00
2019-01-28T03:19:09.785Z,0.00
2019-01-28T03:20:09.768Z,0.00
2019-01-28T03:21:09.794Z,0.00
2019-01-28T03:22:09.747Z,0.00
2019-01-28T03:23:09.752Z,0.00
2019-01-28T03:24:09.726Z,0.00
2019-01-28T03:25:09.718Z,0.00
2019-01-28T03:26:09.708Z,0.00
2019-01-28T03:27:09.725Z,0.00
2019-01-28T03:28:09.682Z,0.00
2019-01-28T03:29:09.682Z,0.00
2019-01-28T03:30:09.663Z,0.00
2019-01-28T03:31:09.653Z,0.00
2019-01-28T03:32:09.686Z,0.00
2019-01-28T03:33:09.666Z,0.00
2019-01-28T03:34:09.625Z,0.00
2019-01-28T03:35:09.623Z,0.00
2019-01-28T03:36:09.596Z,0.00
2019-01-28T03:37:09.587Z,0.00
2019-01-28T03:38:09.574Z,0.00
2019-01-28T03:39:09.594Z,0.00
2019-01-28T03:40:09.560Z,0.00
2019-01-28T03:41:09.554Z,0.00
2019-01-28T03:42:09.537Z,0.00
2019-01-28T03:43:09.522Z,0.00
2019-01-28T03:44:09.512Z,0.00
2019-01-28T03:45:09.545Z,0.00
2019-01-28T03:46:09.902Z,0.00
2019-01-28T03:47:09.489Z,0.00
2019-01-28T03:48:09.481Z,0.00
2019-01-28T03:49:09.458Z,0.00
2019-01-28T03:50:09.449Z,0.00
2019-01-28T03:51:09.474Z,0.00
2019-01-28T03:52:09.425Z,0.00
2019-01-28T03:53:09.415Z,0.00
2019-01-28T03:54:09.412Z,0.00
2019-01-28T03:55:09.394Z,0.00
2019-01-28T03:56:09.383Z,0.00
2019-01-28T03:57:09.401Z,0.00
2019-01-28T03:58:09.362Z,0.00
2019-01-28T03:59:09.351Z,0.00
2019-01-28T04:00:09.344Z,0.00
2019-01-28T04:01:09.333Z,0.00
2019-01-28T04:02:09.319Z,0.00
2019-01-28T04:03:09.343Z,0.00
2019-01-28T04:04:09.297Z,0.00
2019-01-28T04:05:09.286Z,0.00
2019-01-28T04:06:09.284Z,0.00
2019-01-28T04:07:09.266Z,0.00
2019-01-28T04:08:09.253Z,0.00
2019-01-28T04:09:09.280Z,0.00
2019-01-28T04:10:09.233Z,0.00
2019-01-28T04:11:09.225Z,0.00
2019-01-28T04:12:09.220Z,0.00
2019-01-28T04:13:09.202Z,0.00
2019-01-28T04:14:09.225Z,0.00
2019-01-28T04:15:09.213Z,0.00
2019-01-28T04:16:09.184Z,0.00
2019-01-28T04:17:09.158Z,0.00
2019-01-28T04:18:09.152Z,0.00
2019-01-28T04:19:09.137Z,0.00
2019-01-28T04:20:09.126Z,0.00
2019-01-28T04:21:09.158Z,0.00
2019-01-28T04:22:09.104Z,0.00
2019-01-28T04:23:09.094Z,0.00
2019-01-28T04:24:09.089Z,0.00
2019-01-28T04:25:09.073Z,0.00
2019-01-28T04:26:09.062Z,0.00
2019-01-28T04:27:09.091Z,0.00
2019-01-28T04:28:09.041Z,0.00
2019-01-28T04:29:09.030Z,0.00
2019-01-28T04:30:09.029Z,0.00
2019-01-28T04:31:09.010Z,0.00
2019-01-28T04:32:08.997Z,0.00
2019-01-28T04:33:09.032Z,0.00
2019-01-28T04:34:08.978Z,0.00
2019-01-28T04:35:08.976Z,0.00
2019-01-28T04:36:08.982Z,0.00
2019-01-28T04:37:08.946Z,0.00
2019-01-28T04:38:08.934Z,0.00
2019-01-28T04:39:08.966Z,0.00
2019-01-28T04:40:08.913Z,0.00
2019-01-28T04:41:08.906Z,0.00
2019-01-28T04:42:08.901Z,0.00
2019-01-28T04:43:08.881Z,0.00
2019-01-28T04:44:08.873Z,0.00
2019-01-28T04:45:08.898Z,0.00
2019-01-28T04:46:08.851Z,0.00
2019-01-28T04:47:08.839Z,0.00
2019-01-28T04:48:08.841Z,0.00
2019-01-28T04:49:08.817Z,0.00
2019-01-28T04:50:08.808Z,0.00
2019-01-28T04:51:08.824Z,0.00
2019-01-28T04:52:08.791Z,0.00
2019-01-28T04:53:08.774Z,0.00
2019-01-28T04:54:08.773Z,0.00
2019-01-28T04:55:08.752Z,0.00
2019-01-28T04:56:08.743Z,0.00
2019-01-28T04:57:08.767Z,0.00
2019-01-28T04:58:08.720Z,0.00
2019-01-28T04:59:08.711Z,0.00
2019-01-28T05:00:08.731Z,0.00
2019-01-28T05:01:08.689Z,0.00
2019-01-28T05:02:08.679Z,0.00
2019-01-28T05:03:08.867Z,0.00
2019-01-28T05:04:08.664Z,0.00
2019-01-28T05:05:08.648Z,0.00
2019-01-28T05:06:10.654Z,0.00
2019-01-28T05:07:08.626Z,0.00
2019-01-28T05:08:08.618Z,0.00
2019-01-28T05:09:08.651Z,0.00
2019-01-28T05:10:08.593Z,0.00
2019-01-28T05:11:08.585Z,0.00
2019-01-28T05:12:08.583Z,0.00
2019-01-28T05:13:08.564Z,0.00
2019-01-28T05:14:08.554Z,0.00
2019-01-28T05:15:08.576Z,0.00
2019-01-28T05:16:08.530Z,0.00
2019-01-28T05:17:08.531Z,0.00
2019-01-28T05:18:08.514Z,0.00
2019-01-28T05:19:08.497Z,0.00
2019-01-28T05:20:08.491Z,0.00
2019-01-28T05:21:08.512Z,0.00
2019-01-28T05:22:08.465Z,0.00
2019-01-28T05:23:08.457Z,0.00
2019-01-28T05:24:08.453Z,0.00
2019-01-28T05:25:08.438Z,0.00
2019-01-28T05:26:08.474Z,0.00
2019-01-28T05:27:08.439Z,0.00
2019-01-28T05:28:08.402Z,0.00
2019-01-28T05:29:08.389Z,0.00
2019-01-28T05:30:08.380Z,0.00
2019-01-28T05:31:08.371Z,0.00
2019-01-28T05:32:08.368Z,0.00
2019-01-28T05:33:08.731Z,0.00
2019-01-28T05:34:08.386Z,0.00
2019-01-28T05:35:08.332Z,0.00
2019-01-28T05:36:08.317Z,0.00
2019-01-28T05:37:08.307Z,0.00
2019-01-28T05:38:08.299Z,0.00
2019-01-28T05:39:08.356Z,0.00
2019-01-28T05:40:08.274Z,0.00
2019-01-28T05:41:08.264Z,0.00
2019-01-28T05:42:08.252Z,0.00
2019-01-28T05:43:08.243Z,0.00
2019-01-28T05:44:08.240Z,0.00
2019-01-28T05:45:08.252Z,0.00
2019-01-28T05:46:08.211Z,0.00
2019-01-28T05:47:08.198Z,0.00
2019-01-28T05:48:08.189Z,0.00
2019-01-28T05:49:08.181Z,0.00
2019-01-28T05:50:08.173Z,0.00
2019-01-28T05:51:08.202Z,0.00
2019-01-28T05:52:08.147Z,0.00
2019-01-28T05:53:08.135Z,0.00
2019-01-28T05:54:08.123Z,0.00
2019-01-28T05:55:08.113Z,0.00
2019-01-28T05:56:08.104Z,0.00
2019-01-28T05:57:08.752Z,0.00
2019-01-28T05:58:08.089Z,0.00
2019-01-28T05:59:08.071Z,0.00
2019-01-28T06:00:08.061Z,0.00
2019-01-28T06:01:08.049Z,0.00
2019-01-28T06:02:08.047Z,0.00
2019-01-28T06:03:08.067Z,0.00
2019-01-28T06:04:08.022Z,0.00
2019-01-28T06:05:08.012Z,0.00
2019-01-28T06:06:07.999Z,0.00
2019-01-28T06:07:07.995Z,0.00
2019-01-28T06:08:07.978Z,0.00
2019-01-28T06:09:08.154Z,0.00
2019-01-28T06:10:07.963Z,0.00
2019-01-28T06:11:07.945Z,0.00
2019-01-28T06:12:07.931Z,0.00
2019-01-28T06:13:07.921Z,0.00
2019-01-28T06:14:07.943Z,0.00
2019-01-28T06:15:07.939Z,0.00
2019-01-28T06:16:07.900Z,0.00
2019-01-28T06:17:07.892Z,0.00
2019-01-28T06:18:07.869Z,0.00
2019-01-28T06:19:07.859Z,0.00
2019-01-28T06:20:07.846Z,0.00
2019-01-28T06:21:07.865Z,0.00
2019-01-28T06:22:07.831Z,0.00
2019-01-28T06:23:07.824Z,0.00
2019-01-28T06:24:07.809Z,0.00
2019-01-28T06:25:07.798Z,0.00
2019-01-28T06:26:07.782Z,0.00
2019-01-28T06:27:07.806Z,0.00
2019-01-28T06:28:07.761Z,0.00
2019-01-28T06:29:07.756Z,0.00
2019-01-28T06:30:07.743Z,0.00
2019-01-28T06:31:07.729Z,0.00
2019-01-28T06:32:07.718Z,0.00
2019-01-28T06:33:07.748Z,0.00
2019-01-28T06:34:07.712Z,0.00
2019-01-28T06:35:07.699Z,0.00
2019-01-28T06:36:07.675Z,0.00
2019-01-28T06:37:07.666Z,0.00
2019-01-28T06:38:07.654Z,0.00
2019-01-28T06:39:07.675Z,0.00
2019-01-28T06:40:07.639Z,0.00
2019-01-28T06:41:07.626Z,0.00
2019-01-28T06:42:07.619Z,0.00
2019-01-28T06:43:07.610Z,0.00
2019-01-28T06:44:07.595Z,0.00
2019-01-28T06:45:07.628Z,0.00
2019-01-28T06:46:07.573Z,0.00
2019-01-28T06:47:07.564Z,0.00
2019-01-28T06:48:07.551Z,0.00
2019-01-28T06:49:07.548Z,0.00
2019-01-28T06:50:07.536Z,0.00
2019-01-28T06:51:07.554Z,0.00
2019-01-28T06:52:07.507Z,0.00
2019-01-28T06:53:07.505Z,0.00
2019-01-28T06:54:07.493Z,0.00
2019-01-28T06:55:07.484Z,0.00
2019-01-28T06:56:07.465Z,0.00
2019-01-28T06:57:07.484Z,0.00
2019-01-28T06:58:07.442Z,0.00
2019-01-28T06:59:07.431Z,0.00
2019-01-28T07:00:07.423Z,0.00
2019-01-28T07:01:07.412Z,0.00
2019-01-28T07:02:07.402Z,0.00
2019-01-28T07:03:07.428Z,0.00
2019-01-28T07:04:07.390Z,0.00
2019-01-28T07:05:07.368Z,0.00
2019-01-28T07:06:07.364Z,0.00
2019-01-28T07:07:07.351Z,0.00
2019-01-28T07:08:07.343Z,0.00
2019-01-28T07:09:07.625Z,0.00
2019-01-28T07:10:07.320Z,0.00
2019-01-28T07:11:07.310Z,0.00
2019-01-28T07:12:07.298Z,0.00
2019-01-28T07:13:07.284Z,0.00
2019-01-28T07:14:07.272Z,0.00
2019-01-28T07:15:07.298Z,0.00
2019-01-28T07:16:07.250Z,0.00
2019-01-28T07:17:07.240Z,0.00
2019-01-28T07:18:07.231Z,0.00
2019-01-28T07:19:07.218Z,0.00
2019-01-28T07:20:07.215Z,0.00
2019-01-28T07:21:07.234Z,0.00
2019-01-28T07:22:07.186Z,0.00
2019-01-28T07:23:07.177Z,0.00
2019-01-28T07:24:07.167Z,0.00
2019-01-28T07:25:07.159Z,0.00
2019-01-28T07:26:07.150Z,0.00
2019-01-28T07:27:07.172Z,0.00
2019-01-28T07:28:07.123Z,0.00
2019-01-28T07:29:07.111Z,0.00
2019-01-28T07:30:07.104Z,5.62
2019-01-28T07:31:07.094Z,5.62
2019-01-28T07:32:07.149Z,5.62
2019-01-28T07:33:07.494Z,5.62
2019-01-28T07:34:07.064Z,5.62
2019-01-28T07:35:07.116Z,5.62
2019-01-28T07:36:07.038Z,5.62
2019-01-28T07:37:07.027Z,5.62
2019-01-28T07:38:07.016Z,11.25
2019-01-28T07:39:07.044Z,11.25
2019-01-28T07:40:07.004Z,11.25
2019-01-28T07:41:06.983Z,11.25
2019-01-28T07:42:06.974Z,16.88
2019-01-28T07:43:06.970Z,16.88
2019-01-28T07:44:06.972Z,16.88
2019-01-28T07:45:06.979Z,16.88
2019-01-28T07:46:06.930Z,16.88
2019-01-28T07:47:06.920Z,11.25
2019-01-28T07:48:06.910Z,11.25
2019-01-28T07:49:06.936Z,11.25
2019-01-28T07:50:06.888Z,11.25
2019-01-28T07:51:06.911Z,11.25
2019-01-28T07:52:06.866Z,11.25
2019-01-28T07:53:06.857Z,16.88
2019-01-28T07:54:06.853Z,16.88
2019-01-28T07:55:06.840Z,16.88
2019-01-28T07:56:06.832Z,16.88
2019-01-28T07:57:06.889Z,16.88
2019-01-28T07:58:06.803Z,16.88
2019-01-28T07:59:06.797Z,22.50
2019-01-28T08:00:06.782Z,16.88
2019-01-28T08:01:06.774Z,16.88
2019-01-28T08:02:06.764Z,16.88
2019-01-28T08:03:06.794Z,16.88
2019-01-28T08:04:06.762Z,16.88
2019-01-28T08:05:06.744Z,16.88
2019-01-28T08:06:06.729Z,16.88
2019-01-28T08:07:06.714Z,16.88
2019-01-28T08:08:06.705Z,16.88
2019-01-28T08:09:06.723Z,16.88
2019-01-28T08:10:06.683Z,16.88
2019-01-28T08:11:06.671Z,16.88
2019-01-28T08:12:06.656Z,22.50
2019-01-28T08:13:06.646Z,22.50
2019-01-28T08:14:06.641Z,28.12
2019-01-28T08:15:06.670Z,28.12
2019-01-28T08:16:06.624Z,22.50
2019-01-28T08:17:06.599Z,22.50
2019-01-28T08:18:10.864Z,22.50
2019-01-28T08:19:06.578Z,28.12
2019-01-28T08:20:11.426Z,28.12
2019-01-28T08:21:07.599Z,28.12
2019-01-28T08:22:06.565Z,28.12
2019-01-28T08:23:06.542Z,33.75
2019-01-28T08:24:06.538Z,45.00
2019-01-28T08:25:06.517Z,50.62
2019-01-28T08:26:06.510Z,50.62
2019-01-28T08:27:06.538Z,45.00
2019-01-28T08:28:06.484Z,45.00
2019-01-28T08:29:06.479Z,50.62
2019-01-28T08:30:06.462Z,61.88
2019-01-28T08:31:06.454Z,61.88
2019-01-28T08:32:06.458Z,56.25
2019-01-28T08:33:06.472Z,56.25
2019-01-28T08:34:06.422Z,61.88
2019-01-28T08:35:06.413Z,67.50
2019-01-28T08:36:06.401Z,73.12
2019-01-28T08:37:06.389Z,84.38
2019-01-28T08:38:06.423Z,84.38
2019-01-28T08:39:06.402Z,90.00
2019-01-28T08:40:06.356Z,101.25
2019-01-28T08:41:06.352Z,101.25
2019-01-28T08:42:06.335Z,95.62
2019-01-28T08:43:06.328Z,90.00
2019-01-28T08:44:06.334Z,84.38
2019-01-28T08:45:06.333Z,84.38
2019-01-28T08:46:06.292Z,84.38
2019-01-28T08:47:06.279Z,84.38
2019-01-28T08:48:06.272Z,78.75
2019-01-28T08:49:06.526Z,78.75
2019-01-28T08:50:06.256Z,84.38
2019-01-28T08:51:06.292Z,78.75
2019-01-28T08:52:06.236Z,73.12
2019-01-28T08:53:06.236Z,78.75
2019-01-28T08:54:06.211Z,73.12
2019-01-28T08:55:06.199Z,67.50
2019-01-28T08:56:06.187Z,67.50
2019-01-28T08:57:06.358Z,84.38
2019-01-28T08:58:06.220Z,90.00
2019-01-28T08:59:06.155Z,95.62
2019-01-28T09:00:06.150Z,95.62
2019-01-28T09:01:06.136Z,90.00
2019-01-28T09:02:06.120Z,95.62
2019-01-28T09:03:06.152Z,101.25
2019-01-28T09:04:06.113Z,118.12
2019-01-28T09:05:06.091Z,106.88
2019-01-28T09:06:06.091Z,101.25
2019-01-28T09:07:06.075Z,90.00
2019-01-28T09:08:06.068Z,90.00
2019-01-28T09:09:06.080Z,95.62
2019-01-28T09:10:06.045Z,106.88
2019-01-28T09:11:06.032Z,112.50
2019-01-28T09:12:06.021Z,123.75
2019-01-28T09:13:06.003Z,135.00
2019-01-28T09:14:05.997Z,129.38
2019-01-28T09:15:06.030Z,140.62
2019-01-28T09:16:05.982Z,146.25
2019-01-28T09:17:05.961Z,140.62
2019-01-28T09:18:05.954Z,129.38
2019-01-28T09:19:05.952Z,118.12
2019-01-28T09:20:05.927Z,123.75
2019-01-28T09:21:05.965Z,123.75
2019-01-28T09:22:05.906Z,129.38
2019-01-28T09:23:05.902Z,140.62
2019-01-28T09:24:05.897Z,140.62
2019-01-28T09:25:05.872Z,146.25
2019-01-28T09:26:06.639Z,140.62
2019-01-28T09:27:05.893Z,151.88
2019-01-28T09:28:05.846Z,163.12
2019-01-28T09:29:05.848Z,163.12
2019-01-28T09:30:05.820Z,157.50
2019-01-28T09:31:05.817Z,157.50
2019-01-28T09:32:05.805Z,151.88
2019-01-28T09:33:05.824Z,151.88
2019-01-28T09:34:05.775Z,140.62
2019-01-28T09:35:05.775Z,135.00
2019-01-28T09:36:05.757Z,146.25
2019-01-28T09:37:05.741Z,163.12
2019-01-28T09:38:05.751Z,168.75
2019-01-28T09:39:05.753Z,163.12
2019-01-28T09:40:05.729Z,168.75
2019-01-28T09:41:05.710Z,163.12
2019-01-28T09:42:05.691Z,146.25
2019-01-28T09:43:05.689Z,118.12
2019-01-28T09:44:05.666Z,112.50
2019-01-28T09:45:05.705Z,101.25
2019-01-28T09:46:05.667Z,106.88
2019-01-28T09:47:05.636Z,112.50
2019-01-28T09:48:05.628Z,123.75
2019-01-28T09:49:05.618Z,129.38
2019-01-28T09:50:05.609Z,129.38
2019-01-28T09:51:05.630Z,163.12
2019-01-28T09:52:05.584Z,168.75
2019-01-28T09:53:05.584Z,180.00
2019-01-28T09:54:05.561Z,213.75
2019-01-28T09:55:05.554Z,236.25
2019-01-28T09:56:05.554Z,208.12
2019-01-28T09:57:05.561Z,208.12
2019-01-28T09:58:05.526Z,202.50
2019-01-28T09:59:05.505Z,196.88
2019-01-28T10:00:05.497Z,230.62
2019-01-28T10:01:05.483Z,230.62
2019-01-28T10:02:05.478Z,253.12
2019-01-28T10:03:05.497Z,253.12
2019-01-28T10:04:05.448Z,275.62
2019-01-28T10:05:05.444Z,281.25
2019-01-28T10:06:05.451Z,281.25
2019-01-28T10:07:05.419Z,253.12
2019-01-28T10:08:05.411Z,208.12
2019-01-28T10:09:10.049Z,191.25
2019-01-28T10:10:05.382Z,180.00
2019-01-28T10:11:05.382Z,185.62
2019-01-28T10:12:05.393Z,168.75
2019-01-28T10:13:05.352Z,174.38
2019-01-28T10:14:05.348Z,174.38
2019-01-28T10:15:05.364Z,163.12
2019-01-28T10:16:05.319Z,151.88
2019-01-28T10:17:05.322Z,140.62
2019-01-28T10:18:05.301Z,163.12
2019-01-28T10:19:05.286Z,202.50
2019-01-28T10:20:05.279Z,230.62
2019-01-28T10:21:05.298Z,213.75
2019-01-28T10:22:05.258Z,196.88
2019-01-28T10:23:05.241Z,174.38
2019-01-28T10:24:05.233Z,168.75
2019-01-28T10:25:05.220Z,180.00
2019-01-28T10:26:05.218Z,202.50
2019-01-28T10:27:05.248Z,191.25
2019-01-28T10:28:05.201Z,208.12
2019-01-28T10:29:05.177Z,196.88
2019-01-28T10:30:05.177Z,191.25
2019-01-28T10:31:05.170Z,191.25
2019-01-28T10:32:05.173Z,213.75
2019-01-28T10:33:05.168Z,202.50
2019-01-28T10:34:06.391Z,208.12
2019-01-28T10:35:05.114Z,219.38
2019-01-28T10:36:05.103Z,225.00
2019-01-28T10:37:05.093Z,264.38
2019-01-28T10:38:05.087Z,270.00
2019-01-28T10:39:05.254Z,270.00
2019-01-28T10:40:05.057Z,247.50
2019-01-28T10:41:05.050Z,247.50
2019-01-28T10:42:09.714Z,247.50
2019-01-28T10:43:06.025Z,241.88
2019-01-28T10:44:10.162Z,241.88
2019-01-28T10:45:06.068Z,208.12
2019-01-28T10:46:04.997Z,196.88
2019-01-28T10:47:04.982Z,196.88
2019-01-28T10:48:04.982Z,185.62
2019-01-28T10:49:04.961Z,185.62
2019-01-28T10:50:04.955Z,191.25
2019-01-28T10:51:04.993Z,208.12
2019-01-28T10:52:04.925Z,230.62
2019-01-28T10:53:04.924Z,247.50
2019-01-28T10:54:04.903Z,258.75
2019-01-28T10:55:04.915Z,281.25
2019-01-28T10:56:04.943Z,258.75
2019-01-28T10:57:04.916Z,253.12
2019-01-28T10:58:04.862Z,241.88
2019-01-28T10:59:04.976Z,202.50
2019-01-28T11:00:04.855Z,213.75
2019-01-28T11:01:04.832Z,225.00
2019-01-28T11:02:04.839Z,225.00
2019-01-28T11:03:04.904Z,202.50
2019-01-28T11:04:04.812Z,219.38
2019-01-28T11:05:04.804Z,213.75
2019-01-28T11:06:04.772Z,196.88
2019-01-28T11:07:04.763Z,213.75
2019-01-28T11:08:04.752Z,202.50
2019-01-28T11:09:04.808Z,219.38
2019-01-28T11:10:04.736Z,230.62
2019-01-28T11:11:04.810Z,219.38
2019-01-28T11:12:04.762Z,213.75
2019-01-28T11:13:05.221Z,202.50
2019-01-28T11:14:04.685Z,219.38
2019-01-28T11:15:05.080Z,213.75
2019-01-28T11:16:04.665Z,202.50
2019-01-28T11:17:04.725Z,196.88
2019-01-28T11:18:04.737Z,208.12
2019-01-28T11:19:04.755Z,202.50
2019-01-28T11:20:04.622Z,208.12
2019-01-28T11:21:04.718Z,202.50
2019-01-28T11:22:04.672Z,208.12
2019-01-28T11:23:04.595Z,208.12
2019-01-28T11:24:04.631Z,185.62
2019-01-28T11:25:04.590Z,180.00
2019-01-28T11:26:04.637Z,174.38
2019-01-28T11:27:04.657Z,174.38
2019-01-28T11:28:04.571Z,213.75
2019-01-28T11:29:04.555Z,191.25
2019-01-28T11:30:04.650Z,163.12
2019-01-28T11:31:04.588Z,180.00
2019-01-28T11:32:04.499Z,202.50
2019-01-28T11:33:04.615Z,202.50
2019-01-28T11:34:04.472Z,174.38
2019-01-28T11:35:04.494Z,185.62
2019-01-28T11:36:05.381Z,202.50
2019-01-28T11:37:04.495Z,180.00
2019-01-28T11:38:04.550Z,174.38
2019-01-28T11:39:04.455Z,196.88
2019-01-28T11:40:04.548Z,180.00
2019-01-28T11:41:04.516Z,168.75
2019-01-28T11:42:04.554Z,185.62
2019-01-28T11:43:04.391Z,191.25
2019-01-28T11:44:04.370Z,202.50
2019-01-28T11:45:04.554Z,208.12
2019-01-28T11:46:04.479Z,225.00
2019-01-28T11:47:04.330Z,213.75
2019-01-28T11:48:04.339Z,213.75
2019-01-28T11:49:06.022Z,275.62
2019-01-28T11:50:04.401Z,225.00
2019-01-28T11:51:04.323Z,236.25
2019-01-28T11:52:04.282Z,247.50
2019-01-28T11:53:04.265Z,219.38
2019-01-28T11:54:04.258Z,219.38
2019-01-28T11:55:04.268Z,180.00
2019-01-28T11:56:04.228Z,174.38
2019-01-28T11:57:04.255Z,191.25
2019-01-28T11:58:04.208Z,202.50
2019-01-28T11:59:04.209Z,208.12
2019-01-28T12:00:04.187Z,180.00
2019-01-28T12:01:04.173Z,185.62
2019-01-28T12:02:04.175Z,185.62
2019-01-28T12:03:04.181Z,230.62
2019-01-28T12:04:04.150Z,213.75
2019-01-28T12:05:04.131Z,202.50
2019-01-28T12:06:04.122Z,236.25
2019-01-28T12:07:04.108Z,180.00
2019-01-28T12:08:04.110Z,140.62
2019-01-28T12:09:04.124Z,140.62
2019-01-28T12:10:04.075Z,140.62
2019-01-28T12:11:04.064Z,202.50
2019-01-28T12:12:04.056Z,163.12
2019-01-28T12:13:08.008Z,123.75
2019-01-28T12:14:04.061Z,112.50
2019-01-28T12:15:04.864Z,140.62
2019-01-28T12:16:04.053Z,146.25
2019-01-28T12:17:04.001Z,135.00
2019-01-28T12:18:05.836Z,140.62
2019-01-28T12:19:03.978Z,151.88
2019-01-28T12:20:03.970Z,202.50
2019-01-28T12:21:04.000Z,185.62
2019-01-28T12:22:03.946Z,174.38
2019-01-28T12:23:03.937Z,174.38
2019-01-28T12:24:03.932Z,174.38
2019-01-28T12:25:03.916Z,168.75
2019-01-28T12:26:03.904Z,157.50
2019-01-28T12:27:03.934Z,191.25
2019-01-28T12:28:03.880Z,174.38
2019-01-28T12:29:03.878Z,163.12
2019-01-28T12:30:03.857Z,174.38
2019-01-28T12:31:03.849Z,213.75
2019-01-28T12:32:03.835Z,236.25
2019-01-28T12:33:03.863Z,236.25
2019-01-28T12:34:03.815Z,247.50
2019-01-28T12:35:03.820Z,270.00
2019-01-28T12:36:03.798Z,275.62
2019-01-28T12:37:03.780Z,270.00
2019-01-28T12:38:03.773Z,236.25
2019-01-28T12:39:03.808Z,196.88
2019-01-28T12:40:03.754Z,168.75
2019-01-28T12:41:03.747Z,247.50
2019-01-28T12:42:03.728Z,236.25
2019-01-28T12:43:03.714Z,281.25
2019-01-28T12:44:03.706Z,241.88
2019-01-28T12:45:03.731Z,202.50
2019-01-28T12:46:03.685Z,213.75
2019-01-28T12:47:03.681Z,219.38
2019-01-28T12:48:03.662Z,230.62
2019-01-28T12:49:03.650Z,225.00
2019-01-28T12:50:03.639Z,241.88
2019-01-28T12:51:03.662Z,202.50
2019-01-28T12:52:03.643Z,219.38
2019-01-28T12:53:03.630Z,236.25
2019-01-28T12:54:03.598Z,253.12
2019-01-28T12:55:03.592Z,270.00
2019-01-28T12:56:03.573Z,264.38
2019-01-28T12:57:03.606Z,241.88
2019-01-28T12:58:03.558Z,180.00
2019-01-28T12:59:08.935Z,202.50